createdAt,value
2023-05-08T00:00:32.829Z,93020.00
2023-05-08T00:01:32.876Z,93022.00
2023-05-08T00:02:33.168Z,93022.00
2023-05-08T00:03:33.152Z,93022.00
2023-05-08T00:04:33.109Z,93022.00
2023-05-08T00:05:33.135Z,93022.00
2023-05-08T00:06:33.192Z,93022.00
2023-05-08T00:07:33.252Z,93022.00
2023-05-08T00:08:33.357Z,93024.00
2023-05-08T00:09:33.418Z,93022.00
2023-05-08T00:10:33.428Z,93022.00
2023-05-08T00:11:33.508Z,93020.00
2023-05-08T00:12:33.640Z,93020.00
2023-05-08T00:13:33.633Z,93022.00
2023-05-08T00:14:33.697Z,93020.00
2023-05-08T00:15:33.769Z,93018.00
2023-05-08T00:16:33.827Z,93018.00
2023-05-08T00:17:33.898Z,93018.00
2023-05-08T00:18:33.919Z,93018.00
2023-05-08T00:19:33.978Z,93020.00
2023-05-08T00:20:34.008Z,93020.00
2023-05-08T00:21:34.084Z,93020.00
2023-05-08T00:22:34.183Z,93018.00
2023-05-08T00:23:34.182Z,93020.00
2023-05-08T00:24:34.197Z,93022.00
2023-05-08T00:25:34.258Z,93018.00
2023-05-08T00:26:34.310Z,93018.00
2023-05-08T00:27:34.386Z,93018.00
2023-05-08T00:28:34.439Z,93016.00
2023-05-08T00:29:34.530Z,93016.00
2023-05-08T00:30:34.548Z,93014.00
2023-05-08T00:31:34.628Z,93014.00
2023-05-08T00:32:34.684Z,93012.00
2023-05-08T00:33:34.730Z,93012.00
2023-05-08T00:34:34.744Z,93010.00
2023-05-08T00:35:34.799Z,93012.00
2023-05-08T00:36:34.844Z,93012.00
2023-05-08T00:37:34.901Z,93012.00
2023-05-08T00:38:34.961Z,93012.00
2023-05-08T00:39:35.941Z,93014.00
2023-05-08T00:40:35.089Z,93012.00
2023-05-08T00:41:35.111Z,93012.00
2023-05-08T00:42:35.208Z,93012.00
2023-05-08T00:43:35.296Z,93014.00
2023-05-08T00:44:35.290Z,93014.00
2023-05-08T00:45:35.355Z,93014.00
2023-05-08T00:46:35.456Z,93016.00
2023-05-08T00:47:35.495Z,93016.00
2023-05-08T00:48:35.498Z,93016.00
2023-05-08T00:49:35.633Z,93014.00
2023-05-08T00:50:35.614Z,93014.00
2023-05-08T00:51:35.659Z,93018.00
2023-05-08T00:52:35.713Z,93014.00
2023-05-08T00:53:35.781Z,93016.00
2023-05-08T00:54:35.829Z,93016.00
2023-05-08T00:55:35.907Z,93018.00
2023-05-08T00:56:35.936Z,93016.00
2023-05-08T00:57:36.944Z,93016.00
2023-05-08T00:58:36.060Z,93016.00
2023-05-08T00:59:36.105Z,93016.00
2023-05-08T01:00:36.166Z,93018.00
2023-05-08T01:01:36.224Z,93016.00
2023-05-08T01:02:36.375Z,93016.00
2023-05-08T01:03:36.489Z,93018.00
2023-05-08T01:04:36.377Z,93016.00
2023-05-08T01:05:36.542Z,93018.00
2023-05-08T01:06:36.475Z,93018.00
2023-05-08T01:07:36.517Z,93018.00
2023-05-08T01:08:36.593Z,93018.00
2023-05-08T01:09:36.656Z,93018.00
2023-05-08T01:10:36.699Z,93018.00
2023-05-08T01:11:36.763Z,93018.00
2023-05-08T01:12:36.866Z,93018.00
2023-05-08T01:13:36.860Z,93018.00
2023-05-08T01:14:36.924Z,93020.00
2023-05-08T01:15:37.064Z,93018.00
2023-05-08T01:16:37.149Z,93018.00
2023-05-08T01:17:37.107Z,93018.00
2023-05-08T01:18:37.953Z,93020.00
2023-05-08T01:19:37.201Z,93020.00
2023-05-08T01:20:37.260Z,93020.00
2023-05-08T01:21:37.320Z,93020.00
2023-05-08T01:22:37.382Z,93016.00
2023-05-08T01:23:37.448Z,93016.00
2023-05-08T01:24:37.508Z,93020.00
2023-05-08T01:25:37.568Z,93018.00
2023-05-08T01:26:37.634Z,93016.00
2023-05-08T01:27:37.703Z,93018.00
2023-05-08T01:28:37.770Z,93020.00
2023-05-08T01:29:37.825Z,93020.00
2023-05-08T01:30:37.899Z,93018.00
2023-05-08T01:31:38.513Z,93020.00
2023-05-08T01:32:38.063Z,93018.00
2023-05-08T01:33:38.138Z,93020.00
2023-05-08T01:34:38.165Z,93020.00
2023-05-08T01:35:38.228Z,93020.00
2023-05-08T01:36:38.307Z,93020.00
2023-05-08T01:37:38.375Z,93018.00
2023-05-08T01:38:38.435Z,93018.00
2023-05-08T01:39:39.495Z,93018.00
2023-05-08T01:40:38.567Z,93016.00
2023-05-08T01:41:38.703Z,93016.00
2023-05-08T01:42:38.694Z,93016.00
2023-05-08T01:43:38.766Z,93016.00
2023-05-08T01:44:38.834Z,93016.00
2023-05-08T01:45:38.895Z,93016.00
2023-05-08T01:46:39.069Z,93018.00
2023-05-08T01:47:39.096Z,93018.00
2023-05-08T01:48:39.156Z,93016.00
2023-05-08T01:49:39.228Z,93016.00
2023-05-08T01:50:39.225Z,93016.00
2023-05-08T01:51:39.297Z,93018.00
2023-05-08T01:52:39.333Z,93018.00
2023-05-08T01:53:39.378Z,93022.00
2023-05-08T01:54:39.427Z,93018.00
2023-05-08T01:55:39.480Z,93018.00
2023-05-08T01:56:39.547Z,93020.00
2023-05-08T01:57:39.602Z,93018.00
2023-05-08T01:58:39.643Z,93018.00
2023-05-08T01:59:39.696Z,93018.00
2023-05-08T02:00:39.797Z,93020.00
2023-05-08T02:01:39.853Z,93016.00
2023-05-08T02:02:39.974Z,93016.00
2023-05-08T02:03:39.984Z,93016.00
2023-05-08T02:04:39.953Z,93016.00
2023-05-08T02:05:40.000Z,93010.00
2023-05-08T02:06:40.048Z,93018.00
2023-05-08T02:07:40.101Z,93012.00
2023-05-08T02:08:40.149Z,93012.00
2023-05-08T02:09:40.201Z,93018.00
2023-05-08T02:10:40.266Z,93014.00
2023-05-08T02:11:40.314Z,93010.00
2023-05-08T02:12:40.409Z,93016.00
2023-05-08T02:13:40.415Z,93008.00
2023-05-08T02:14:40.485Z,93008.00
2023-05-08T02:15:40.524Z,93008.00
2023-05-08T02:16:40.611Z,93010.00
2023-05-08T02:17:40.654Z,93010.00
2023-05-08T02:18:40.656Z,93010.00
2023-05-08T02:19:40.713Z,93010.00
2023-05-08T02:20:40.776Z,93010.00
2023-05-08T02:21:40.830Z,93010.00
2023-05-08T02:22:40.910Z,93010.00
2023-05-08T02:23:40.894Z,93010.00
2023-05-08T02:24:40.945Z,93012.00
2023-05-08T02:25:41.000Z,93010.00
2023-05-08T02:26:41.054Z,93010.00
2023-05-08T02:27:41.101Z,93010.00
2023-05-08T02:28:41.150Z,93010.00
2023-05-08T02:29:41.199Z,93008.00
2023-05-08T02:30:41.244Z,93008.00
2023-05-08T02:31:41.317Z,93008.00
2023-05-08T02:32:41.361Z,93008.00
2023-05-08T02:33:41.396Z,93008.00
2023-05-08T02:34:51.204Z,93008.00
2023-05-08T02:35:42.444Z,93010.00
2023-05-08T02:36:41.433Z,93012.00
2023-05-08T02:37:41.433Z,93012.00
2023-05-08T02:38:41.423Z,93006.00
2023-05-08T02:39:41.989Z,93008.00
2023-05-08T02:40:41.414Z,93008.00
2023-05-08T02:41:41.462Z,93010.00
2023-05-08T02:42:41.417Z,93014.00
2023-05-08T02:43:41.392Z,93012.00
2023-05-08T02:44:41.413Z,93012.00
2023-05-08T02:45:41.402Z,93014.00
2023-05-08T02:46:41.510Z,93016.00
2023-05-08T02:47:41.557Z,93016.00
2023-05-08T02:48:41.526Z,93018.00
2023-05-08T02:49:41.586Z,93018.00
2023-05-08T02:50:41.718Z,93018.00
2023-05-08T02:51:41.688Z,93018.00
2023-05-08T02:52:41.738Z,93020.00
2023-05-08T02:53:41.800Z,93020.00
2023-05-08T02:54:41.851Z,93018.00
2023-05-08T02:55:41.897Z,93020.00
2023-05-08T02:56:41.951Z,93020.00
2023-05-08T02:57:42.011Z,93016.00
2023-05-08T02:58:42.059Z,93016.00
2023-05-08T02:59:42.118Z,93018.00
2023-05-08T03:00:42.158Z,93018.00
2023-05-08T03:01:42.231Z,93020.00
2023-05-08T03:02:42.358Z,93018.00
2023-05-08T03:03:42.477Z,93020.00
2023-05-08T03:04:42.382Z,93020.00
2023-05-08T03:05:42.431Z,93020.00
2023-05-08T03:06:42.486Z,93020.00
2023-05-08T03:07:42.526Z,93018.00
2023-05-08T03:08:42.578Z,93020.00
2023-05-08T03:09:42.677Z,93020.00
2023-05-08T03:10:42.754Z,93020.00
2023-05-08T03:11:42.761Z,93020.00
2023-05-08T03:12:43.009Z,93022.00
2023-05-08T03:13:42.847Z,93018.00
2023-05-08T03:14:42.902Z,93022.00
2023-05-08T03:15:42.989Z,93024.00
2023-05-08T03:16:43.004Z,93020.00
2023-05-08T03:17:43.123Z,93022.00
2023-05-08T03:18:43.220Z,93020.00
2023-05-08T03:19:43.202Z,93020.00
2023-05-08T03:20:43.229Z,93020.00
2023-05-08T03:21:43.284Z,93020.00
2023-05-08T03:22:43.327Z,93020.00
2023-05-08T03:23:44.000Z,93020.00
2023-05-08T03:24:43.442Z,93018.00
2023-05-08T03:25:43.488Z,93020.00
2023-05-08T03:26:43.545Z,93022.00
2023-05-08T03:27:43.600Z,93020.00
2023-05-08T03:28:43.664Z,93020.00
2023-05-08T03:29:44.002Z,93022.00
2023-05-08T03:30:43.769Z,93022.00
2023-05-08T03:31:43.967Z,93022.00
2023-05-08T03:32:43.910Z,93022.00
2023-05-08T03:33:43.945Z,93022.00
2023-05-08T03:34:43.993Z,93020.00
2023-05-08T03:35:44.048Z,93022.00
2023-05-08T03:36:44.113Z,93020.00
2023-05-08T03:37:45.005Z,93020.00
2023-05-08T03:38:44.264Z,93024.00
2023-05-08T03:39:44.278Z,93026.00
2023-05-08T03:40:44.335Z,93024.00
2023-05-08T03:41:44.396Z,93027.00
2023-05-08T03:42:44.435Z,93026.00
2023-05-08T03:43:44.513Z,93029.00
2023-05-08T03:44:44.551Z,93029.00
2023-05-08T03:45:44.584Z,93029.00
2023-05-08T03:46:44.694Z,93031.00
2023-05-08T03:47:44.750Z,93033.00
2023-05-08T03:48:44.727Z,93035.00
2023-05-08T03:49:44.805Z,93031.00
2023-05-08T03:50:44.869Z,93033.00
2023-05-08T03:51:44.905Z,93031.00
2023-05-08T03:52:44.954Z,93035.00
2023-05-08T03:53:45.022Z,93033.00
2023-05-08T03:54:45.092Z,93033.00
2023-05-08T03:55:45.167Z,93031.00
2023-05-08T03:56:45.200Z,93031.00
2023-05-08T03:57:45.245Z,93029.00
2023-05-08T03:58:45.292Z,93031.00
2023-05-08T03:59:45.348Z,93029.00
2023-05-08T04:00:45.400Z,93031.00
2023-05-08T04:01:45.476Z,93029.00
2023-05-08T04:02:45.553Z,93031.00
2023-05-08T04:03:45.771Z,93031.00
2023-05-08T04:04:45.637Z,93033.00
2023-05-08T04:05:45.674Z,93033.00
2023-05-08T04:06:50.093Z,93035.00
2023-05-08T04:07:46.820Z,93033.00
2023-05-08T04:08:45.742Z,93035.00
2023-05-08T04:09:45.750Z,93035.00
2023-05-08T04:10:45.750Z,93033.00
2023-05-08T04:11:45.751Z,93033.00
2023-05-08T04:12:45.801Z,93037.00
2023-05-08T04:13:45.740Z,93035.00
2023-05-08T04:14:45.747Z,93037.00
2023-05-08T04:15:45.745Z,93039.00
2023-05-08T04:16:45.846Z,93041.00
2023-05-08T04:17:45.934Z,93037.00
2023-05-08T04:18:45.948Z,93039.00
2023-05-08T04:19:45.958Z,93045.00
2023-05-08T04:20:46.313Z,93041.00
2023-05-08T04:21:46.081Z,93045.00
2023-05-08T04:22:46.212Z,93047.00
2023-05-08T04:23:46.198Z,93043.00
2023-05-08T04:24:46.278Z,93047.00
2023-05-08T04:25:46.351Z,93047.00
2023-05-08T04:26:46.396Z,93049.00
2023-05-08T04:27:46.461Z,93049.00
2023-05-08T04:28:46.512Z,93049.00
2023-05-08T04:29:46.578Z,93051.00
2023-05-08T04:30:46.637Z,93051.00
2023-05-08T04:31:46.747Z,93051.00
2023-05-08T04:32:47.166Z,93053.00
2023-05-08T04:33:46.813Z,93053.00
2023-05-08T04:34:46.883Z,93055.00
2023-05-08T04:35:46.959Z,93057.00
2023-05-08T04:36:46.984Z,93057.00
2023-05-08T04:37:47.069Z,93059.00
2023-05-08T04:38:47.084Z,93059.00
2023-05-08T04:39:47.148Z,93061.00
2023-05-08T04:40:47.285Z,93063.00
2023-05-08T04:41:47.260Z,93063.00
2023-05-08T04:42:47.508Z,93065.00
2023-05-08T04:43:47.354Z,93067.00
2023-05-08T04:44:47.592Z,93065.00
2023-05-08T04:45:47.458Z,93069.00
2023-05-08T04:46:47.478Z,93067.00
2023-05-08T04:47:47.562Z,93069.00
2023-05-08T04:48:47.570Z,93071.00
2023-05-08T04:49:47.576Z,93071.00
2023-05-08T04:50:47.631Z,93073.00
2023-05-08T04:51:47.657Z,93069.00
2023-05-08T04:52:47.692Z,93067.00
2023-05-08T04:53:47.724Z,93071.00
2023-05-08T04:54:47.776Z,93069.00
2023-05-08T04:55:47.835Z,93071.00
2023-05-08T04:56:47.898Z,93067.00
2023-05-08T04:57:47.954Z,93069.00
2023-05-08T04:58:48.002Z,93071.00
2023-05-08T04:59:48.064Z,93069.00
2023-05-08T05:00:48.105Z,93069.00
2023-05-08T05:01:48.211Z,93067.00
2023-05-08T05:02:48.672Z,93067.00
2023-05-08T05:03:48.274Z,93067.00
2023-05-08T05:04:48.303Z,93069.00
2023-05-08T05:05:48.375Z,93069.00
2023-05-08T05:06:48.420Z,93069.00
2023-05-08T05:07:48.469Z,93069.00
2023-05-08T05:08:48.519Z,93071.00
2023-05-08T05:09:48.556Z,93071.00
2023-05-08T05:10:48.590Z,93071.00
2023-05-08T05:11:48.707Z,93073.00
2023-05-08T05:12:48.719Z,93075.00
2023-05-08T05:13:48.711Z,93073.00
2023-05-08T05:14:48.754Z,93073.00
2023-05-08T05:15:48.831Z,93073.00
2023-05-08T05:16:48.831Z,93073.00
2023-05-08T05:17:48.898Z,93073.00
2023-05-08T05:18:48.854Z,93075.00
2023-05-08T05:19:50.408Z,93073.00
2023-05-08T05:20:49.111Z,93075.00
2023-05-08T05:21:49.120Z,93075.00
2023-05-08T05:22:49.129Z,93073.00
2023-05-08T05:23:49.166Z,93077.00
2023-05-08T05:24:49.185Z,93077.00
2023-05-08T05:25:50.082Z,93081.00
2023-05-08T05:26:49.212Z,93081.00
2023-05-08T05:27:49.219Z,93081.00
2023-05-08T05:28:49.240Z,93081.00
2023-05-08T05:29:49.262Z,93082.00
2023-05-08T05:30:49.286Z,93086.00
2023-05-08T05:31:49.311Z,93084.00
2023-05-08T05:32:49.358Z,93090.00
2023-05-08T05:33:49.316Z,93088.00
2023-05-08T05:34:49.320Z,93088.00
2023-05-08T05:35:49.378Z,93086.00
2023-05-08T05:36:49.301Z,93086.00
2023-05-08T05:37:49.297Z,93090.00
2023-05-08T05:38:49.305Z,93090.00
2023-05-08T05:39:49.347Z,93090.00
2023-05-08T05:40:49.388Z,93092.00
2023-05-08T05:41:49.428Z,93090.00
2023-05-08T05:42:49.473Z,93092.00
2023-05-08T05:43:49.557Z,93096.00
2023-05-08T05:44:49.597Z,93094.00
2023-05-08T05:45:49.644Z,93094.00
2023-05-08T05:46:49.730Z,93096.00
2023-05-08T05:47:50.134Z,93096.00
2023-05-08T05:48:49.865Z,93092.00
2023-05-08T05:49:49.842Z,93096.00
2023-05-08T05:50:50.568Z,93104.00
2023-05-08T05:51:49.908Z,93104.00
2023-05-08T05:52:49.966Z,93106.00
2023-05-08T05:53:49.978Z,93106.00
2023-05-08T05:54:50.045Z,93106.00
2023-05-08T05:55:50.053Z,93104.00
2023-05-08T05:56:50.079Z,93106.00
2023-05-08T05:57:50.113Z,93104.00
2023-05-08T05:58:50.201Z,93112.00
2023-05-08T05:59:50.165Z,93110.00
2023-05-08T06:00:50.216Z,93110.00
2023-05-08T06:01:50.232Z,93108.00
2023-05-08T06:02:50.300Z,93112.00
2023-05-08T06:03:50.442Z,93112.00
2023-05-08T06:04:50.295Z,93112.00
2023-05-08T06:05:50.324Z,93112.00
2023-05-08T06:06:50.319Z,93112.00
2023-05-08T06:07:50.404Z,93110.00
2023-05-08T06:08:50.368Z,93112.00
2023-05-08T06:09:50.394Z,93110.00
2023-05-08T06:10:50.419Z,93114.00
2023-05-08T06:11:50.532Z,93110.00
2023-05-08T06:12:50.557Z,93112.00
2023-05-08T06:13:50.776Z,93114.00
2023-05-08T06:14:50.539Z,93112.00
2023-05-08T06:15:50.582Z,93114.00
2023-05-08T06:16:50.633Z,93112.00
2023-05-08T06:17:50.655Z,93112.00
2023-05-08T06:18:50.668Z,93112.00
2023-05-08T06:19:50.753Z,93112.00
2023-05-08T06:20:50.793Z,93112.00
2023-05-08T06:21:50.803Z,93114.00
2023-05-08T06:22:50.859Z,93112.00
2023-05-08T06:23:50.925Z,93116.00
2023-05-08T06:24:50.973Z,93114.00
2023-05-08T06:25:51.019Z,93116.00
2023-05-08T06:26:51.081Z,93116.00
2023-05-08T06:27:51.591Z,93114.00
2023-05-08T06:28:51.201Z,93110.00
2023-05-08T06:29:51.166Z,93110.00
2023-05-08T06:30:51.198Z,93110.00
2023-05-08T06:31:51.164Z,93114.00
2023-05-08T06:32:51.220Z,93110.00
2023-05-08T06:33:51.200Z,93112.00
2023-05-08T06:34:51.228Z,93112.00
2023-05-08T06:35:51.270Z,93112.00
2023-05-08T06:36:51.334Z,93110.00
2023-05-08T06:37:51.371Z,93112.00
2023-05-08T06:38:51.427Z,93108.00
2023-05-08T06:40:03.835Z,93110.00
2023-05-08T06:40:52.532Z,93112.00
2023-05-08T06:41:51.503Z,93116.00
2023-05-08T06:42:51.477Z,93116.00
2023-05-08T06:43:51.477Z,93116.00
2023-05-08T06:44:51.484Z,93118.00
2023-05-08T06:45:51.499Z,93116.00
2023-05-08T06:46:51.501Z,93116.00
2023-05-08T06:47:51.640Z,93116.00
2023-05-08T06:48:51.470Z,93116.00
2023-05-08T06:49:51.489Z,93114.00
2023-05-08T06:50:51.471Z,93116.00
2023-05-08T06:51:52.083Z,93114.00
2023-05-08T06:52:51.559Z,93116.00
2023-05-08T06:53:51.601Z,93116.00
2023-05-08T06:54:51.638Z,93116.00
2023-05-08T06:55:51.685Z,93116.00
2023-05-08T06:56:51.734Z,93116.00
2023-05-08T06:57:51.786Z,93118.00
2023-05-08T06:59:00.944Z,93121.00
2023-05-08T06:59:53.597Z,93119.00
2023-05-08T07:00:51.934Z,93119.00
2023-05-08T07:01:51.856Z,93118.00
2023-05-08T07:02:51.918Z,93119.00
2023-05-08T07:03:51.841Z,93119.00
2023-05-08T07:04:51.861Z,93119.00
2023-05-08T07:05:51.849Z,93121.00
2023-05-08T07:06:51.835Z,93118.00
2023-05-08T07:07:51.843Z,93121.00
2023-05-08T07:08:51.896Z,93121.00
2023-05-08T07:09:51.846Z,93119.00
2023-05-08T07:10:51.843Z,93121.00
2023-05-08T07:11:51.829Z,93121.00
2023-05-08T07:12:51.948Z,93123.00
2023-05-08T07:13:51.928Z,93123.00
2023-05-08T07:14:51.995Z,93121.00
2023-05-08T07:15:52.063Z,93123.00
2023-05-08T07:16:52.118Z,93125.00
2023-05-08T07:17:52.264Z,93123.00
2023-05-08T07:18:52.251Z,93125.00
2023-05-08T07:19:52.339Z,93121.00
2023-05-08T07:20:52.388Z,93121.00
2023-05-08T07:21:52.512Z,93121.00
2023-05-08T07:22:53.097Z,93121.00
2023-05-08T07:23:52.579Z,93121.00
2023-05-08T07:24:52.724Z,93119.00
2023-05-08T07:25:52.735Z,93121.00
2023-05-08T07:26:52.792Z,93118.00
2023-05-08T07:27:53.602Z,93118.00
2023-05-08T07:28:52.914Z,93119.00
2023-05-08T07:29:52.982Z,93121.00
2023-05-08T07:30:53.075Z,93121.00
2023-05-08T07:31:53.158Z,93121.00
2023-05-08T07:32:53.171Z,93121.00
2023-05-08T07:33:53.191Z,93121.00
2023-05-08T07:34:53.301Z,93121.00
2023-05-08T07:35:53.264Z,93123.00
2023-05-08T07:36:55.105Z,93123.00
2023-05-08T07:37:53.277Z,93127.00
2023-05-08T07:38:54.100Z,93123.00
2023-05-08T07:39:53.291Z,93127.00
2023-05-08T07:40:53.308Z,93125.00
2023-05-08T07:41:53.361Z,93125.00
2023-05-08T07:42:53.316Z,93125.00
2023-05-08T07:43:53.328Z,93123.00
2023-05-08T07:44:54.994Z,93119.00
2023-05-08T07:45:53.366Z,93123.00
2023-05-08T07:46:53.407Z,93121.00
2023-05-08T07:47:53.470Z,93123.00
2023-05-08T07:48:53.395Z,93123.00
2023-05-08T07:49:53.361Z,93127.00
2023-05-08T07:50:53.357Z,93125.00
2023-05-08T07:51:53.366Z,93123.00
2023-05-08T07:52:53.613Z,93127.00
2023-05-08T07:53:53.383Z,93125.00
2023-05-08T07:54:53.409Z,93123.00
2023-05-08T07:55:53.419Z,93123.00
2023-05-08T07:56:53.408Z,93121.00
2023-05-08T07:57:53.450Z,93123.00
2023-05-08T07:58:53.430Z,93125.00
2023-05-08T07:59:53.432Z,93121.00
2023-05-08T08:00:53.448Z,93121.00
2023-05-08T08:01:53.501Z,93121.00
2023-05-08T08:02:53.575Z,93123.00
2023-05-08T08:03:53.599Z,93123.00
2023-05-08T08:04:53.475Z,93121.00
2023-05-08T08:05:53.544Z,93119.00
2023-05-08T08:06:53.492Z,93121.00
2023-05-08T08:07:53.509Z,93121.00
2023-05-08T08:08:53.519Z,93119.00
2023-05-08T08:09:53.521Z,93119.00
2023-05-08T08:10:53.521Z,93118.00
2023-05-08T08:11:53.539Z,93119.00
2023-05-08T08:12:53.621Z,93118.00
2023-05-08T08:13:53.625Z,93119.00
2023-05-08T08:14:53.712Z,93118.00
2023-05-08T08:15:53.691Z,93121.00
2023-05-08T08:16:53.772Z,93121.00
2023-05-08T08:17:53.844Z,93119.00
2023-05-08T08:18:53.787Z,93116.00
2023-05-08T08:19:53.935Z,93116.00
2023-05-08T08:20:53.946Z,93116.00
2023-05-08T08:21:53.942Z,93116.00
2023-05-08T08:22:54.024Z,93116.00
2023-05-08T08:23:54.080Z,93114.00
2023-05-08T08:24:55.006Z,93114.00
2023-05-08T08:25:54.211Z,93116.00
2023-05-08T08:26:54.269Z,93112.00
2023-05-08T08:27:54.338Z,93112.00
2023-05-08T08:28:54.404Z,93114.00
2023-05-08T08:30:01.494Z,93112.00
2023-05-08T08:30:55.462Z,93112.00
2023-05-08T08:31:54.493Z,93110.00
2023-05-08T08:32:54.536Z,93108.00
2023-05-08T08:33:54.450Z,93108.00
2023-05-08T08:34:54.538Z,93110.00
2023-05-08T08:35:54.564Z,93112.00
2023-05-08T08:36:54.483Z,93112.00
2023-05-08T08:37:54.480Z,93110.00
2023-05-08T08:38:54.507Z,93108.00
2023-05-08T08:39:54.518Z,93110.00
2023-05-08T08:40:54.579Z,93106.00
2023-05-08T08:41:54.499Z,93108.00
2023-05-08T08:42:54.481Z,93106.00
2023-05-08T08:43:54.568Z,93108.00
2023-05-08T08:44:54.489Z,93108.00
2023-05-08T08:45:54.561Z,93108.00
2023-05-08T08:46:54.647Z,93108.00
2023-05-08T08:48:54.583Z,93112.00
2023-05-08T08:49:54.570Z,93108.00
2023-05-08T08:50:54.579Z,93112.00
2023-05-08T08:51:54.661Z,93112.00
2023-05-08T08:52:54.652Z,93112.00
2023-05-08T08:53:54.655Z,93114.00
2023-05-08T08:54:54.741Z,93112.00
2023-05-08T08:55:54.802Z,93112.00
2023-05-08T08:56:54.838Z,93112.00
2023-05-08T08:57:54.882Z,93114.00
2023-05-08T08:58:54.917Z,93116.00
2023-05-08T08:59:54.972Z,93110.00
2023-05-08T09:00:55.008Z,93110.00
2023-05-08T09:01:55.024Z,93110.00
2023-05-08T09:02:55.071Z,93110.00
2023-05-08T09:03:55.087Z,93106.00
2023-05-08T09:04:55.111Z,93106.00
2023-05-08T09:05:55.176Z,93104.00
2023-05-08T09:06:55.224Z,93096.00
2023-05-08T09:07:55.359Z,93096.00
2023-05-08T09:08:55.391Z,93096.00
2023-05-08T09:09:56.135Z,93094.00
2023-05-08T09:10:55.441Z,93096.00
2023-05-08T09:11:55.481Z,93104.00
2023-05-08T09:12:55.547Z,93104.00
2023-05-08T09:13:55.589Z,93104.00
2023-05-08T09:14:55.674Z,93096.00
2023-05-08T09:15:55.759Z,93096.00
2023-05-08T09:16:55.777Z,93096.00
2023-05-08T09:17:55.881Z,93096.00
2023-05-08T09:18:55.898Z,93096.00
2023-05-08T09:19:55.961Z,93104.00
2023-05-08T09:20:56.055Z,93094.00
2023-05-08T09:21:56.091Z,93104.00
2023-05-08T09:22:56.141Z,93096.00
2023-05-08T09:23:56.178Z,93096.00
2023-05-08T09:24:56.245Z,93096.00
2023-05-08T09:25:56.289Z,93104.00
2023-05-08T09:26:56.356Z,93094.00
2023-05-08T09:27:56.420Z,93096.00
2023-05-08T09:28:56.585Z,93096.00
2023-05-08T09:29:56.502Z,93096.00
2023-05-08T09:30:56.555Z,93094.00
2023-05-08T09:31:56.632Z,93094.00
2023-05-08T09:32:56.604Z,93094.00
2023-05-08T09:33:56.530Z,93096.00
2023-05-08T09:34:56.544Z,93096.00
2023-05-08T09:35:56.548Z,93092.00
2023-05-08T09:36:56.578Z,93096.00
2023-05-08T09:37:57.381Z,93094.00
2023-05-08T09:38:56.685Z,93094.00
2023-05-08T09:39:56.812Z,93092.00
2023-05-08T09:40:56.754Z,93092.00
2023-05-08T09:41:56.796Z,93092.00
2023-05-08T09:42:56.804Z,93090.00
2023-05-08T09:43:56.820Z,93092.00
2023-05-08T09:44:56.838Z,93094.00
2023-05-08T09:45:56.881Z,93094.00
2023-05-08T09:46:56.881Z,93094.00
2023-05-08T09:47:56.934Z,93094.00
2023-05-08T09:48:56.906Z,93094.00
2023-05-08T09:49:56.917Z,93096.00
2023-05-08T09:50:56.914Z,93096.00
2023-05-08T09:51:56.916Z,93094.00
2023-05-08T09:52:56.924Z,93092.00
2023-05-08T09:53:56.920Z,93104.00
2023-05-08T09:54:56.936Z,93096.00
2023-05-08T09:55:57.318Z,93096.00
2023-05-08T09:56:56.879Z,93096.00
2023-05-08T09:57:56.898Z,93096.00
2023-05-08T09:58:56.872Z,93094.00
2023-05-08T09:59:56.847Z,93092.00
2023-05-08T10:00:56.920Z,93092.00
2023-05-08T10:01:56.820Z,93090.00
2023-05-08T10:02:56.834Z,93088.00
2023-05-08T10:03:56.829Z,93088.00
2023-05-08T10:04:56.848Z,93092.00
2023-05-08T10:05:56.806Z,93092.00
2023-05-08T10:06:56.802Z,93090.00
2023-05-08T10:07:56.833Z,93088.00
2023-05-08T10:08:56.842Z,93088.00
2023-05-08T10:09:56.858Z,93090.00
2023-05-08T10:10:56.839Z,93088.00
2023-05-08T10:11:56.946Z,93088.00
2023-05-08T10:12:56.923Z,93086.00
2023-05-08T10:13:56.857Z,93084.00
2023-05-08T10:14:57.661Z,93086.00
2023-05-08T10:15:56.844Z,93088.00
2023-05-08T10:16:56.871Z,93084.00
2023-05-08T10:17:56.858Z,93084.00
2023-05-08T10:18:56.823Z,93086.00
2023-05-08T10:19:56.839Z,93086.00
2023-05-08T10:20:56.840Z,93082.00
2023-05-08T10:21:56.845Z,93082.00
2023-05-08T10:22:56.872Z,93086.00
2023-05-08T10:23:56.840Z,93082.00
2023-05-08T10:24:56.837Z,93082.00
2023-05-08T10:25:56.830Z,93081.00
2023-05-08T10:27:05.640Z,93079.00
2023-05-08T10:27:57.963Z,93082.00
2023-05-08T10:28:56.801Z,93081.00
2023-05-08T10:29:56.779Z,93081.00
2023-05-08T10:30:56.796Z,93082.00
2023-05-08T10:31:56.733Z,93081.00
2023-05-08T10:32:56.733Z,93081.00
2023-05-08T10:33:56.713Z,93079.00
2023-05-08T10:34:56.675Z,93075.00
2023-05-08T10:35:56.663Z,93075.00
2023-05-08T10:36:56.635Z,93077.00
2023-05-08T10:37:56.693Z,93075.00
2023-05-08T10:38:57.677Z,93075.00
2023-05-08T10:39:56.790Z,93073.00
2023-05-08T10:40:56.832Z,93075.00
2023-05-08T10:41:56.879Z,93073.00
2023-05-08T10:42:56.949Z,93075.00
2023-05-08T10:43:58.077Z,93075.00
2023-05-08T10:44:56.886Z,93075.00
2023-05-08T10:45:56.897Z,93073.00
2023-05-08T10:46:56.841Z,93071.00
2023-05-08T10:47:56.885Z,93073.00
2023-05-08T10:48:56.794Z,93071.00
2023-05-08T10:49:57.175Z,93071.00
2023-05-08T10:50:56.777Z,93069.00
2023-05-08T10:51:56.818Z,93067.00
2023-05-08T10:52:56.875Z,93065.00
2023-05-08T10:53:56.916Z,93065.00
2023-05-08T10:54:56.971Z,93063.00
2023-05-08T10:55:57.607Z,93061.00
2023-05-08T10:56:57.071Z,93059.00
2023-05-08T10:57:57.118Z,93059.00
2023-05-08T10:58:57.170Z,93055.00
2023-05-08T10:59:57.226Z,93055.00
2023-05-08T11:00:57.231Z,93055.00
2023-05-08T11:01:57.320Z,93053.00
2023-05-08T11:02:57.395Z,93051.00
2023-05-08T11:03:57.703Z,93047.00
2023-05-08T11:04:57.385Z,93049.00
2023-05-08T11:05:57.398Z,93043.00
2023-05-08T11:06:57.407Z,93043.00
2023-05-08T11:07:57.415Z,93041.00
2023-05-08T11:09:00.510Z,93041.00
2023-05-08T11:09:57.371Z,93039.00
2023-05-08T11:10:57.359Z,93039.00
2023-05-08T11:11:58.144Z,93037.00
2023-05-08T11:12:57.357Z,93035.00
2023-05-08T11:13:57.307Z,93033.00
2023-05-08T11:14:57.293Z,93031.00
2023-05-08T11:15:57.335Z,93029.00
2023-05-08T11:16:57.262Z,93029.00
2023-05-08T11:17:57.276Z,93027.00
2023-05-08T11:18:57.238Z,93026.00
2023-05-08T11:19:57.246Z,93026.00
2023-05-08T11:20:57.210Z,93026.00
2023-05-08T11:21:57.199Z,93022.00
2023-05-08T11:22:57.180Z,93022.00
2023-05-08T11:23:57.181Z,93022.00
2023-05-08T11:24:57.158Z,93024.00
2023-05-08T11:25:57.138Z,93024.00
2023-05-08T11:26:57.131Z,93024.00
2023-05-08T11:27:57.116Z,93022.00
2023-05-08T11:28:57.111Z,93020.00
2023-05-08T11:29:57.102Z,93020.00
2023-05-08T11:30:57.081Z,93020.00
2023-05-08T11:31:57.104Z,93020.00
2023-05-08T11:32:57.172Z,93020.00
2023-05-08T11:33:57.052Z,93020.00
2023-05-08T11:34:57.036Z,93020.00
2023-05-08T11:35:57.044Z,93018.00
2023-05-08T11:36:57.069Z,93018.00
2023-05-08T11:37:57.006Z,93014.00
2023-05-08T11:38:56.996Z,93016.00
2023-05-08T11:39:57.063Z,93016.00
2023-05-08T11:40:56.979Z,93014.00
2023-05-08T11:41:56.992Z,93014.00
2023-05-08T11:42:56.958Z,93012.00
2023-05-08T11:43:56.970Z,93012.00
2023-05-08T11:44:56.962Z,93012.00
2023-05-08T11:45:56.914Z,93012.00